Time;durP1;ratioP1;P1;durP2;ratioP2;P2;SDS_P1;SDS_P2;PMS_P1;PMS_P2;Temp;Humidity;BMP_temperature;BMP_pressure;BME280_temperature;BME280_humidity;BME280_pressure;Samples;Min_cycle;Max_cycle;Signal;HPM_P1;HPM_P2
2022/12/24 00:00:57;;;;;;;;;2.00;0.00;;;;;21.49;41.38;100998.41;5014813;28;45372;-68
2022/12/24 00:03:23;;;;;;;;;0.00;0.00;;;;;21.49;41.63;100989.66;5027168;28;45430;-68
2022/12/24 00:05:48;;;;;;;;;0.00;0.00;;;;;21.40;41.46;100975.63;5034168;28;45344;-68
2022/12/24 00:08:14;;;;;;;;;1.67;0.67;;;;;21.47;41.08;101000.41;5034569;28;45420;-68
2022/12/24 00:10:39;;;;;;;;;1.00;1.00;;;;;21.47;41.09;101000.41;5034866;28;45293;-69
2022/12/24 00:13:04;;;;;;;;;0.00;0.00;;;;;21.47;41.40;100989.00;5034705;28;45469;-68
2022/12/24 00:15:30;;;;;;;;;2.67;1.67;;;;;21.48;41.40;100996.78;5034418;28;46927;-68
2022/12/24 00:17:55;;;;;;;;;1.33;0.33;;;;;21.46;41.57;101000.59;5034476;28;45310;-68
2022/12/24 00:20:20;;;;;;;;;0.67;0.67;;;;;21.47;41.42;101013.66;5034218;28;45469;-68
2022/12/24 00:22:46;;;;;;;;;1.00;1.00;;;;;21.47;41.51;101016.28;5034617;28;45291;-68
2022/12/24 00:25:11;;;;;;;;;0.00;0.00;;;;;21.45;41.49;101005.06;5034177;28;47070;-68
2022/12/24 00:27:36;;;;;;;;;0.00;0.00;;;;;21.44;41.17;101002.59;5034294;28;45483;-68
2022/12/24 00:30:02;;;;;;;;;0.67;0.67;;;;;21.47;41.39;101007.53;5034536;28;45399;-68
2022/12/24 00:32:28;;;;;;;;;0.00;0.00;;;;;21.47;41.44;101011.00;5034348;28;45450;-68
2022/12/24 00:34:53;;;;;;;;;2.00;1.00;;;;;21.47;41.20;101016.28;5033780;28;45343;-68
2022/12/24 00:37:18;;;;;;;;;1.33;0.00;;;;;21.46;41.17;101022.59;5034253;28;45353;-68
2022/12/24 00:39:44;;;;;;;;;2.67;1.00;;;;;21.47;41.47;101036.63;5034320;28;45339;-68
2022/12/24 00:42:09;;;;;;;;;1.00;1.00;;;;;21.43;41.30;101033.53;5034335;28;45290;-68
2022/12/24 00:44:34;;;;;;;;;1.67;1.00;;;;;21.47;41.10;101026.06;5034001;28;47720;-68
2022/12/24 00:47:00;;;;;;;;;1.00;1.00;;;;;21.47;41.21;101021.59;5034111;28;45432;-68
2022/12/24 00:49:25;;;;;;;;;0.00;0.00;;;;;21.46;41.37;101021.78;5033172;28;45474;-68
2022/12/24 00:51:50;;;;;;;;;3.00;0.00;;;;;21.39;41.15;101009.22;5034266;28;45368;-68
2022/12/24 00:54:16;;;;;;;;;0.00;0.00;;;;;21.46;41.28;101024.41;5030261;28;46999;-68
2022/12/24 00:56:41;;;;;;;;;0.67;0.67;;;;;21.47;41.05;101031.34;5014162;28;45406;-68
2022/12/24 00:59:06;;;;;;;;;1.33;1.00;;;;;21.46;41.09;101027.91;5014247;28;45466;-68
2022/12/24 01:01:32;;;;;;;;;1.00;1.00;;;;;21.47;41.21;101018.09;5013876;28;45430;-68
2022/12/24 01:06:41;;;;;;;;;0.00;0.00;;;;;21.46;41.46;101016.47;5033973;28;45355;-68
2022/12/24 01:09:06;;;;;;;;;1.00;1.00;;;;;21.36;41.09;101003.44;5033781;28;45418;-68
2022/12/24 01:11:32;;;;;;;;;0.67;0.67;;;;;21.46;41.33;101046.44;5034028;28;45363;-68
2022/12/24 01:13:57;;;;;;;;;3.00;0.00;;;;;21.45;41.35;101044.75;5033760;28;46338;-68
2022/12/24 01:16:22;;;;;;;;;2.00;2.00;;;;;21.46;41.27;101050.88;5033446;28;45463;-68
2022/12/24 01:18:48;;;;;;;;;2.00;1.00;;;;;21.46;41.51;101046.44;5033887;28;45398;-68
2022/12/24 01:21:14;;;;;;;;;4.33;1.67;;;;;21.39;41.45;101032.22;5033727;28;45435;-68
2022/12/24 01:23:39;;;;;;;;;0.67;0.00;;;;;21.37;41.10;101026.25;5033772;28;45488;-68
2022/12/24 01:26:05;;;;;;;;;1.00;0.00;;;;;21.43;41.70;101030.88;5033612;28;45376;-68
2022/12/24 01:28:31;;;;;;;;;2.33;1.00;;;;;21.48;41.60;101040.94;5033681;28;45372;-68
2022/12/24 01:30:56;;;;;;;;;2.33;2.00;;;;;21.47;41.48;101050.72;5033317;28;45388;-68
2022/12/24 01:33:21;;;;;;;;;1.00;1.00;;;;;21.49;41.04;101071.72;5033551;28;45372;-68
2022/12/24 01:35:47;;;;;;;;;1.00;1.00;;;;;21.49;41.45;101056.66;5033539;28;45326;-68
2022/12/24 01:38:12;;;;;;;;;0.00;0.00;;;;;21.49;41.59;101058.50;5033518;28;45382;-68
2022/12/24 01:43:26;;;;;;;;;1.00;1.00;;;;;21.45;41.05;101065.09;5033576;28;45808;-68
2022/12/24 01:45:58;;;;;;;;;4.00;1.00;;;;;21.46;41.02;101049.06;5032924;28;45253;-68
2022/12/24 01:48:39;;;;;;;;;2.00;0.00;;;;;21.41;41.11;101059.34;5033487;28;45423;-68
2022/12/24 01:51:26;;;;;;;;;0.00;0.00;;;;;21.49;41.16;101061.94;5033282;28;45349;-68
2022/12/24 01:53:58;;;;;;;;;1.00;1.00;;;;;21.49;41.49;101058.50;5032796;28;46227;-68
2022/12/24 01:56:25;;;;;;;;;1.00;1.00;;;;;21.48;41.46;101057.66;5013315;28;45350;-68
2022/12/24 01:58:56;;;;;;;;;0.00;0.00;;;;;21.49;41.41;101059.28;5013167;28;45312;-68
2022/12/24 02:01:22;;;;;;;;;1.00;1.00;;;;;21.49;41.07;101054.00;5011643;28;45275;-68
2022/12/24 02:03:48;;;;;;;;;1.00;1.00;;;;;21.39;41.31;101045.47;5028841;28;47081;-68
2022/12/24 02:06:15;;;;;;;;;2.00;0.33;;;;;21.50;41.24;101057.47;5032939;28;45422;-68
2022/12/24 02:08:41;;;;;;;;;1.00;1.00;;;;;21.49;41.11;101063.78;5033375;28;45364;-68
2022/12/24 02:11:16;;;;;;;;;2.33;1.00;;;;;21.38;41.04;101042.00;5033095;28;45336;-68
2022/12/24 02:13:47;;;;;;;;;2.00;1.00;;;;;21.49;41.01;101047.91;5032813;28;46481;-68
2022/12/24 02:16:25;;;;;;;;;2.00;0.33;;;;;21.49;41.61;101039.97;5032629;28;45365;-68
2022/12/24 02:19:14;;;;;;;;;0.00;0.00;;;;;21.48;41.47;101038.31;5033126;28;45420;-68
2022/12/24 02:22:02;;;;;;;;;3.67;1.33;;;;;21.47;41.17;101037.47;5032833;28;45365;-68
2022/12/24 02:24:39;;;;;;;;;1.00;1.00;;;;;21.47;41.48;101050.72;5032649;28;46185;-68
2022/12/24 02:27:10;;;;;;;;;0.33;0.00;;;;;21.48;41.74;101060.31;5032745;28;45457;-68
2022/12/24 02:30:11;;;;;;;;;0.00;0.00;;;;;21.48;41.03;101060.31;5032553;28;45391;-68
2022/12/24 02:32:42;;;;;;;;;2.00;0.00;;;;;21.46;41.06;101048.25;5032753;28;45398;-68
2022/12/24 02:35:18;;;;;;;;;0.00;0.00;;;;;21.47;41.52;101036.63;5032641;28;46155;-68
2022/12/24 02:37:49;;;;;;;;;0.67;0.67;;;;;21.36;40.79;101040.50;5032432;28;45638;-68
2022/12/24 02:40:20;;;;;;;;;3.00;0.33;;;;;21.48;40.96;101054.19;5032676;28;45368;-68
2022/12/24 02:42:52;;;;;;;;;0.67;0.00;;;;;21.47;41.48;101053.34;5032615;28;45406;-67
2022/12/24 02:45:22;;;;;;;;;2.00;1.00;;;;;21.39;41.31;101067.44;5032203;28;45479;-68
2022/12/24 02:47:50;;;;;;;;;2.00;0.00;;;;;21.47;41.21;101081.63;5032397;28;45392;-68
2022/12/24 02:50:16;;;;;;;;;1.00;1.00;;;;;21.46;41.51;101080.84;5032564;28;45294;-68
2022/12/24 02:52:44;;;;;;;;;2.67;1.00;;;;;21.46;41.49;101067.59;5032514;28;45222;-68
2022/12/24 02:55:37;;;;;;;;;2.00;1.67;;;;;21.46;41.57;101061.47;5021012;28;47069;-67
2022/12/24 02:58:21;;;;;;;;;1.00;1.00;;;;;21.46;41.25;101064.13;5012089;28;45456;-68
2022/12/24 03:01:16;;;;;;;;;0.67;0.67;;;;;21.38;41.21;101051.75;5012565;28;45402;-68
2022/12/24 03:03:50;;;;;;;;;1.00;0.00;;;;;21.45;41.43;101071.22;5027389;28;45280;-68
2022/12/24 03:06:31;;;;;;;;;1.00;1.00;;;;;21.43;41.23;101067.94;5032176;28;45358;-68
2022/12/24 03:09:11;;;;;;;;;0.00;0.00;;;;;21.45;41.23;101075.69;5032088;28;45373;-68
2022/12/24 03:11:43;;;;;;;;;0.67;0.67;;;;;21.46;41.08;101090.59;5033418;28;45269;-68
2022/12/24 03:14:09;;;;;;;;;1.00;1.00;;;;;21.45;41.00;101086.28;5035023;28;45563;-68
2022/12/24 03:16:35;;;;;;;;;0.33;0.33;;;;;21.46;41.49;101080.00;5035084;28;46530;-68
2022/12/24 03:19:00;;;;;;;;;3.33;0.00;;;;;21.44;41.44;101069.59;5035111;28;45353;-68
2022/12/24 03:21:33;;;;;;;;;1.33;0.33;;;;;21.45;41.09;101067.75;5035269;28;45415;-68
2022/12/24 03:23:59;;;;;;;;;0.00;0.00;;;;;21.45;41.28;101060.66;5035252;28;45645;-68
2022/12/24 03:26:27;;;;;;;;;0.00;0.00;;;;;21.46;41.10;101077.38;5034812;28;46150;-68
2022/12/24 03:28:53;;;;;;;;;1.00;0.00;;;;;21.39;41.09;101066.66;5034700;28;45471;-69
2022/12/24 03:31:18;;;;;;;;;0.67;0.00;;;;;21.45;41.27;101078.34;5035227;28;45340;-68
2022/12/24 03:33:45;;;;;;;;;0.00;0.00;;;;;21.47;41.42;101086.94;5035205;28;45341;-68
2022/12/24 03:36:11;;;;;;;;;1.67;1.67;;;;;21.48;40.89;101085.94;5034938;28;45320;-68
2022/12/24 03:38:36;;;;;;;;;3.33;0.67;;;;;21.48;41.20;101088.59;5034787;28;45338;-68
2022/12/24 03:41:02;;;;;;;;;1.67;1.67;;;;;21.48;41.46;101089.44;5035012;28;45678;-68
2022/12/24 03:43:28;;;;;;;;;0.00;0.00;;;;;21.49;41.46;101084.97;5034826;28;45392;-68
2022/12/24 03:45:53;;;;;;;;;2.00;0.00;;;;;21.49;41.17;101091.06;5034916;28;45349;-68
2022/12/24 03:48:19;;;;;;;;;0.00;0.00;;;;;21.49;41.47;101082.31;5034846;28;45303;-68
2022/12/24 03:50:44;;;;;;;;;1.00;0.67;;;;;21.50;41.39;101078.66;5034904;28;45347;-68
2022/12/24 03:53:09;;;;;;;;;0.00;0.00;;;;;21.49;41.45;101091.06;5035060;28;45391;-68
2022/12/24 03:55:35;;;;;;;;;0.67;0.67;;;;;21.49;40.92;101093.72;5020208;28;45383;-68
2022/12/24 03:58:00;;;;;;;;;1.00;1.00;;;;;21.50;41.31;101097.19;5014491;28;45292;-68
2022/12/24 04:00:25;;;;;;;;;1.00;1.00;;;;;21.50;40.94;101100.66;5014822;28;45469;-68
2022/12/24 04:02:52;;;;;;;;;1.00;1.00;;;;;21.50;40.92;101102.47;5022615;28;45501;-68
2022/12/24 04:05:19;;;;;;;;;1.00;1.00;;;;;21.48;41.36;101092.06;5034636;28;46425;-68
2022/12/24 04:07:45;;;;;;;;;0.00;0.00;;;;;21.40;41.07;101073.56;5034521;28;45367;-68
2022/12/24 04:10:11;;;;;;;;;1.33;1.00;;;;;21.39;41.07;101074.59;5034621;28;45333;-68
2022/12/24 04:12:37;;;;;;;;;2.00;0.00;;;;;21.49;41.49;101090.25;5034371;28;45302;-68
2022/12/24 04:15:03;;;;;;;;;1.00;1.00;;;;;21.49;41.50;101093.72;5034364;28;46189;-68
2022/12/24 04:17:29;;;;;;;;;1.00;0.67;;;;;21.49;41.09;101093.72;5034472;28;45294;-68
2022/12/24 04:19:55;;;;;;;;;0.00;0.00;;;;;21.49;41.53;101096.34;5034519;28;45312;-68
2022/12/24 04:22:20;;;;;;;;;2.00;0.00;;;;;21.39;41.17;101077.22;5033925;28;45221;-68
2022/12/24 04:24:46;;;;;;;;;0.67;0.00;;;;;21.46;41.58;101096.72;5033498;28;47054;-68
2022/12/24 04:27:13;;;;;;;;;0.00;0.00;;;;;21.47;41.37;101089.59;5034274;28;45286;-68
2022/12/24 04:29:38;;;;;;;;;0.00;0.00;;;;;21.46;41.45;101086.13;5034506;28;45400;-68
2022/12/24 04:32:04;;;;;;;;;0.00;0.00;;;;;21.48;40.97;101094.72;5034388;28;45335;-68
2022/12/24 04:34:29;;;;;;;;;1.33;0.00;;;;;21.46;41.59;101098.53;5034226;28;45368;-68
2022/12/24 04:36:54;;;;;;;;;3.33;1.00;;;;;21.47;41.44;101103.66;5033020;28;45364;-68
2022/12/24 04:39:20;;;;;;;;;1.33;1.00;;;;;21.47;41.24;101103.66;5033953;28;45293;-68
2022/12/24 04:41:45;;;;;;;;;1.67;0.67;;;;;21.48;41.44;101115.91;5034276;28;45277;-68
2022/12/24 04:44:10;;;;;;;;;2.33;1.00;;;;;21.45;41.37;101108.28;5034128;28;45356;-68
2022/12/24 04:46:36;;;;;;;;;4.00;0.00;;;;;21.48;41.28;101120.38;5034182;28;45313;-68
2022/12/24 04:49:01;;;;;;;;;3.00;0.67;;;;;21.47;40.93;101110.75;5034255;28;45349;-68
2022/12/24 04:51:27;;;;;;;;;1.00;1.00;;;;;21.46;41.08;101109.13;5034211;28;45400;-68
2022/12/24 04:53:54;;;;;;;;;1.33;0.67;;;;;21.47;41.34;101108.94;5033270;28;46064;-68
2022/12/24 04:56:22;;;;;;;;;1.00;0.67;;;;;21.47;41.21;101101.00;5014059;28;45407;-68
2022/12/24 04:58:49;;;;;;;;;0.00;0.00;;;;;21.48;41.58;101099.19;5014066;28;45476;-68
2022/12/24 05:01:20;;;;;;;;;1.33;0.00;;;;;21.48;41.01;101112.44;5013842;28;45413;-68
2022/12/24 05:03:46;;;;;;;;;1.67;1.00;;;;;21.47;40.89;101111.59;5029353;28;46431;-68
2022/12/24 05:06:14;;;;;;;;;0.00;0.00;;;;;21.49;41.02;101114.09;5033854;28;45278;-68
2022/12/24 05:08:40;;;;;;;;;1.00;1.00;;;;;21.48;41.44;101101.84;5033607;28;45396;-68
2022/12/24 05:11:06;;;;;;;;;0.00;0.00;;;;;21.47;41.13;101114.25;5033874;28;45313;-68
2022/12/24 05:13:31;;;;;;;;;1.33;1.00;;;;;21.44;41.02;101116.41;5033828;28;46060;-68
2022/12/24 05:15:57;;;;;;;;;4.00;1.00;;;;;21.44;40.99;101125.19;5033616;28;45354;-68
2022/12/24 05:18:22;;;;;;;;;1.67;1.00;;;;;21.42;41.51;101126.34;5033876;28;45236;-68
2022/12/24 05:20:48;;;;;;;;;1.33;0.00;;;;;21.48;41.13;101136.25;5033975;28;45402;-69
2022/12/24 05:26:20;;;;;;;;;0.67;0.67;;;;;21.46;41.27;101128.50;5033835;28;45360;-68
2022/12/24 05:28:50;;;;;;;;;0.00;0.00;;;;;21.39;41.20;101123.03;5033797;28;45366;-68
2022/12/24 05:31:16;;;;;;;;;0.00;0.00;;;;;21.46;41.48;101125.84;5033727;28;45257;-68
2022/12/24 05:33:41;;;;;;;;;2.67;1.00;;;;;21.47;41.36;101129.28;5033181;28;45392;-68
2022/12/24 05:36:07;;;;;;;;;0.67;0.67;;;;;21.47;41.43;101127.47;5033798;28;45389;-68
2022/12/24 05:38:32;;;;;;;;;1.00;0.00;;;;;21.37;41.15;101097.72;5033418;28;45368;-68
2022/12/24 05:40:58;;;;;;;;;1.33;1.00;;;;;21.45;41.31;101118.06;5033571;28;45265;-68
2022/12/24 05:43:23;;;;;;;;;1.00;0.00;;;;;21.47;41.48;101119.53;5033468;28;45294;-68
2022/12/24 05:45:48;;;;;;;;;1.67;1.67;;;;;21.49;41.03;101119.38;5033546;28;45331;-68
2022/12/24 05:48:14;;;;;;;;;1.00;1.00;;;;;21.49;41.04;101124.69;5033510;28;45460;-68
2022/12/24 05:50:39;;;;;;;;;1.00;1.00;;;;;21.50;41.26;101126.31;5033401;28;45440;-68
2022/12/24 05:53:06;;;;;;;;;1.67;0.67;;;;;21.50;41.01;101124.50;5032841;28;45958;-68
2022/12/24 05:55:31;;;;;;;;;1.33;0.00;;;;;21.50;41.08;101136.91;5019403;28;45408;-68
2022/12/24 05:57:56;;;;;;;;;3.00;1.00;;;;;21.50;41.24;101131.59;5013389;28;45352;-68
2022/12/24 06:00:22;;;;;;;;;1.67;0.33;;;;;21.49;41.10;101141.38;5013482;28;45288;-68
2022/12/24 06:02:47;;;;;;;;;1.00;1.00;;;;;21.49;41.41;101141.38;5020393;27;46885;-68
2022/12/24 06:05:12;;;;;;;;;1.67;1.67;;;;;21.45;41.23;101128.63;5033297;28;45206;-68
2022/12/24 06:07:38;;;;;;;;;0.00;0.00;;;;;21.48;41.41;101129.13;5033156;28;45922;-68
2022/12/24 06:10:04;;;;;;;;;2.67;0.00;;;;;21.49;41.04;101125.47;5033250;28;45289;-68
2022/12/24 06:12:29;;;;;;;;;0.67;0.67;;;;;21.50;41.15;101118.38;5033000;28;46086;-68
2022/12/24 06:14:55;;;;;;;;;1.00;0.00;;;;;21.48;41.19;101115.91;5032782;28;45347;-68
2022/12/24 06:17:20;;;;;;;;;1.00;1.00;;;;;21.49;41.04;101109.59;5033099;28;45283;-69
2022/12/24 06:19:45;;;;;;;;;1.00;1.00;;;;;21.50;41.20;101115.72;5033155;28;45362;-68
2022/12/24 06:22:11;;;;;;;;;2.33;1.00;;;;;21.48;41.48;101113.25;5032567;28;46134;-68
2022/12/24 06:24:36;;;;;;;;;1.00;1.00;;;;;21.48;41.10;101113.25;5032931;28;45236;-68
2022/12/24 06:27:01;;;;;;;;;2.00;0.00;;;;;21.48;41.32;101118.56;5032792;28;45483;-68
2022/12/24 06:29:26;;;;;;;;;1.00;1.00;;;;;21.48;41.15;101120.38;5032969;28;45382;-68
2022/12/24 06:31:52;;;;;;;;;3.33;0.67;;;;;21.43;40.91;101110.28;5032808;28;45975;-68
2022/12/24 06:34:17;;;;;;;;;0.67;0.00;;;;;21.47;41.21;101114.25;5032836;28;45428;-68
2022/12/24 06:36:42;;;;;;;;;2.00;0.00;;;;;21.48;41.04;101123.00;5032434;28;45353;-68
2022/12/24 06:39:08;;;;;;;;;0.00;0.00;;;;;21.39;40.90;101096.56;5032730;28;45355;-68
2022/12/24 06:41:33;;;;;;;;;1.00;1.00;;;;;21.48;41.05;101117.72;5032530;28;46118;-68
2022/12/24 06:43:58;;;;;;;;;1.00;1.00;;;;;21.48;41.20;101123.00;5032727;28;45431;-68
2022/12/24 06:46:24;;;;;;;;;2.00;0.33;;;;;21.47;41.04;101116.88;5033535;28;45373;-68
2022/12/24 06:48:50;;;;;;;;;2.00;0.00;;;;;21.47;41.35;101121.34;5035691;28;45334;-68
2022/12/24 06:51:18;;;;;;;;;0.67;0.67;;;;;21.48;41.27;101130.94;5035094;28;45345;-68
2022/12/24 06:53:43;;;;;;;;;1.00;1.00;;;;;21.48;41.42;101123.00;5035591;28;45533;-68
2022/12/24 06:56:11;;;;;;;;;1.00;0.00;;;;;21.46;41.35;101122.38;5016453;28;45405;-68
2022/12/24 06:58:37;;;;;;;;;6.00;0.67;;;;;;;;5015785;28;45512;-68
2022/12/24 07:01:05;;;;;;;;;2.00;1.00;;;;;21.48;41.35;101138.91;5015357;28;46060;-68
2022/12/24 07:03:30;;;;;;;;;0.33;0.33;;;;;21.44;41.07;101127.84;5028357;28;45341;-68
2022/12/24 07:05:57;;;;;;;;;0.00;0.00;;;;;21.47;40.98;101131.94;5035167;28;45362;-68
2022/12/24 07:08:22;;;;;;;;;0.00;0.00;;;;;21.48;40.98;101133.59;5035438;28;45291;-68
2022/12/24 07:10:49;;;;;;;;;2.00;0.00;;;;;21.48;41.34;101137.09;5035249;28;45392;-68
2022/12/24 07:13:15;;;;;;;;;4.00;2.00;;;;;21.43;41.15;101128.81;5035279;28;45381;-68
2022/12/24 07:15:40;;;;;;;;;0.00;0.00;;;;;21.43;41.15;101123.53;5035244;28;45485;-68
2022/12/24 07:18:05;;;;;;;;;0.33;0.33;;;;;21.48;40.97;101123.84;5035482;28;45317;-68
2022/12/24 07:20:31;;;;;;;;;1.00;1.00;;;;;21.48;41.05;101134.44;5034771;28;45856;-68
2022/12/24 07:22:56;;;;;;;;;2.00;1.00;;;;;21.48;41.46;101139.72;5035074;28;45294;-68
2022/12/24 07:25:22;;;;;;;;;0.00;0.00;;;;;21.47;41.40;101147.81;5035406;28;45261;-68
2022/12/24 07:27:47;;;;;;;;;0.33;0.33;;;;;21.47;41.05;101145.16;5035191;28;45333;-68
2022/12/24 07:30:12;;;;;;;;;1.67;1.00;;;;;21.47;41.29;101145.16;5034986;28;46090;-68
2022/12/24 07:32:38;;;;;;;;;0.67;0.00;;;;;21.45;41.40;101148.00;5035144;28;45334;-68
2022/12/24 07:35:03;;;;;;;;;1.00;1.00;;;;;21.47;41.10;101145.16;5034816;28;45508;-68
2022/12/24 07:37:28;;;;;;;;;1.00;0.67;;;;;21.35;41.42;101126.19;5035044;28;45420;-69
2022/12/24 07:39:54;;;;;;;;;1.33;1.33;;;;;21.47;40.79;101143.34;5033512;28;47421;-68
2022/12/24 07:42:19;;;;;;;;;1.00;1.00;;;;;21.47;40.96;101146.00;5034893;28;45471;-68
2022/12/24 07:44:44;;;;;;;;;3.00;1.00;;;;;21.48;40.93;101152.13;5035186;28;45337;-68
2022/12/24 07:47:10;;;;;;;;;1.00;1.00;;;;;21.48;41.05;101160.91;5034967;28;45268;-68
2022/12/24 07:49:35;;;;;;;;;2.00;0.67;;;;;21.48;41.01;101162.72;5034416;28;46809;-68
2022/12/24 07:52:02;;;;;;;;;0.00;0.00;;;;;21.48;40.95;101174.16;5034833;28;45345;-68
2022/12/24 07:54:27;;;;;;;;;1.00;0.00;;;;;21.39;41.38;101154.00;5029919;28;45414;-68
2022/12/24 07:56:53;;;;;;;;;1.00;1.00;;;;;21.46;41.48;101157.59;5014809;28;45616;-68
2022/12/24 07:59:19;;;;;;;;;0.00;0.00;;;;;21.49;41.42;101173.13;5014712;28;46045;-68
2022/12/24 08:01:44;;;;;;;;;1.33;1.33;;;;;21.49;41.40;101170.47;5014387;28;45292;-68
2022/12/24 08:04:09;;;;;;;;;2.00;0.00;;;;;21.50;41.39;101172.16;5033211;28;45586;-68
2022/12/24 08:06:35;;;;;;;;;0.33;0.00;;;;;21.50;40.99;101172.16;5034704;28;45327;-68
2022/12/24 08:09:02;;;;;;;;;4.00;1.00;;;;;21.50;41.48;101177.44;5034578;28;46498;-68
2022/12/24 08:11:27;;;;;;;;;3.00;1.00;;;;;;;;5034425;28;45281;-68
2022/12/24 08:13:53;;;;;;;;;2.33;1.00;;;;;21.51;40.99;101181.75;5034698;28;45408;-68
2022/12/24 08:16:18;;;;;;;;;0.00;0.00;;;;;21.50;41.47;101185.38;5034561;28;45417;-68
2022/12/24 08:18:44;;;;;;;;;0.67;0.67;;;;;21.50;41.42;101193.31;5034090;28;45463;-68
2022/12/24 08:21:09;;;;;;;;;3.33;2.67;;;;;21.48;41.12;101195.31;5034508;28;45434;-68
2022/12/24 08:23:35;;;;;;;;;2.00;0.00;;;;;21.50;41.34;101201.28;5034665;28;45381;-68
2022/12/24 08:26:01;;;;;;;;;2.00;1.00;;;;;;;;5034574;28;45407;-68
2022/12/24 08:28:26;;;;;;;;;2.00;2.00;;;;;21.45;41.25;101197.47;5034179;28;45747;-68
2022/12/24 08:30:52;;;;;;;;;0.00;0.00;;;;;21.36;41.18;101186.91;5034410;28;45277;-68
2022/12/24 08:33:18;;;;;;;;;1.67;0.33;;;;;21.49;41.10;101206.75;5034146;28;45509;-68
2022/12/24 08:35:52;;;;;;;;;3.00;2.00;;;;;21.46;40.94;101215.84;5034315;28;45377;-68
2022/12/24 08:38:18;;;;;;;;;1.00;1.00;;;;;21.48;40.89;101213.84;5033937;28;47129;-68
2022/12/24 08:40:47;;;;;;;;;2.33;0.00;;;;;21.49;41.17;101217.34;5034050;28;45367;-69
2022/12/24 08:43:13;;;;;;;;;1.00;1.00;;;;;21.46;41.04;101222.97;5034250;28;45236;-68
2022/12/24 08:45:38;;;;;;;;;3.00;0.00;;;;;21.49;41.02;101236.66;5034012;28;45242;-68
2022/12/24 08:48:04;;;;;;;;;0.00;0.00;;;;;21.50;40.83;101226.91;5033797;28;45923;-68
2022/12/24 08:50:30;;;;;;;;;0.67;0.00;;;;;21.46;41.28;101226.44;5034062;28;45302;-68
2022/12/24 08:52:55;;;;;;;;;1.00;0.67;;;;;21.47;41.40;101224.59;5033951;28;45219;-68
2022/12/24 08:55:20;;;;;;;;;0.00;0.00;;;;;21.49;41.06;101234.03;5021676;28;45287;-68
2022/12/24 08:57:46;;;;;;;;;0.33;0.33;;;;;21.46;40.90;101239.66;5013965;28;45317;-68
2022/12/24 09:00:12;;;;;;;;;2.00;0.00;;;;;21.49;41.45;101249.91;5014061;28;45375;-68
2022/12/24 09:02:38;;;;;;;;;1.00;1.00;;;;;21.48;41.28;101242.97;5019665;27;45434;-68
2022/12/24 09:05:04;;;;;;;;;2.00;0.67;;;;;21.49;41.38;101241.97;5033757;28;45292;-68
2022/12/24 09:07:29;;;;;;;;;2.67;0.33;;;;;21.49;41.10;101236.66;5033769;28;47827;-68
2022/12/24 09:09:54;;;;;;;;;0.33;0.33;;;;;21.32;41.10;101213.84;5033234;28;45365;-68
2022/12/24 09:12:20;;;;;;;;;1.33;0.00;;;;;21.49;40.96;101249.91;5034173;28;45359;-68
2022/12/24 09:14:45;;;;;;;;;0.33;0.33;;;;;21.49;41.37;101252.56;5033653;28;45285;-68
2022/12/24 09:17:10;;;;;;;;;1.33;0.33;;;;;21.49;40.89;101246.47;5033728;28;45283;-68
2022/12/24 09:19:36;;;;;;;;;0.00;0.00;;;;;21.48;41.33;101247.44;5033890;28;45355;-69
2022/12/24 09:22:01;;;;;;;;;1.33;0.00;;;;;21.49;41.18;101249.09;5033615;28;45300;-68
2022/12/24 09:24:26;;;;;;;;;2.00;0.00;;;;;21.48;41.17;101250.91;5033846;28;45334;-68
2022/12/24 09:26:52;;;;;;;;;1.00;1.00;;;;;21.48;41.32;101252.72;5033647;28;46026;-68
2022/12/24 09:29:17;;;;;;;;;2.67;0.67;;;;;21.48;41.31;101252.72;5033218;28;45429;-69
2022/12/24 09:31:43;;;;;;;;;0.33;0.33;;;;;21.48;41.33;101248.28;5033906;28;45431;-68
2022/12/24 09:34:08;;;;;;;;;0.00;0.00;;;;;21.43;41.58;101245.28;5033715;28;45321;-68
2022/12/24 09:36:34;;;;;;;;;1.00;1.00;;;;;21.48;41.49;101250.09;5033371;28;47328;-68
2022/12/24 09:39:00;;;;;;;;;2.00;1.00;;;;;21.48;40.79;101266.81;5033493;28;45411;-69
2022/12/24 09:42:16;;;;;;;;;0.00;0.00;;;;;21.49;41.35;101264.97;5033417;28;45460;-68
2022/12/24 09:45:12;;;;;;;;;0.00;0.00;;;;;21.49;41.40;101267.63;5033248;28;45431;-68
2022/12/24 09:47:44;;;;;;;;;1.00;1.00;;;;;21.51;41.06;101265.66;5033306;28;46412;-68
2022/12/24 09:50:37;;;;;;;;;1.00;1.00;;;;;21.51;40.96;101263.00;5033288;28;45328;-68
2022/12/24 09:53:14;;;;;;;;;0.67;0.67;;;;;21.52;41.21;101261.97;5033288;28;45301;-68
2022/12/24 09:55:49;;;;;;;;;1.00;1.00;;;;;21.51;41.23;101271.78;5018305;28;45265;-68
2022/12/24 09:58:38;;;;;;;;;4.67;1.00;;;;;21.51;40.99;101271.78;5013018;28;47148;-72
2022/12/24 10:01:04;;;;;;;;;0.00;0.00;;;;;21.51;41.48;101271.78;5013202;28;45406;-68
2022/12/24 10:03:30;;;;;;;;;1.00;1.00;;;;;21.52;40.87;101276.06;5026141;28;45317;-68
2022/12/24 10:06:23;;;;;;;;;1.00;0.33;;;;;21.42;41.31;101262.16;5033110;28;45388;-68
2022/12/24 10:09:19;;;;;;;;;1.00;1.00;;;;;21.53;41.05;101274.25;5032941;28;46973;-68
2022/12/24 10:12:04;;;;;;;;;3.00;0.00;;;;;21.52;40.84;101284.00;5033005;28;45419;-68
2022/12/24 10:14:54;;;;;;;;;0.67;0.67;;;;;21.54;41.28;101288.31;5032863;28;45385;-68
2022/12/24 10:17:19;;;;;;;;;1.00;1.00;;;;;21.53;41.74;101284.81;5032929;28;45218;-68
2022/12/24 10:20:15;;;;;;;;;1.33;1.33;;;;;21.52;41.36;101286.66;5032885;28;46159;-68
2022/12/24 10:22:52;;;;;;;;;0.33;0.33;;;;;21.51;41.01;101282.38;5030973;28;45338;-68
2022/12/24 10:25:29;;;;;;;;;3.00;1.00;;;;;21.51;41.36;101287.66;5031756;28;45390;-68
2022/12/24 10:27:59;;;;;;;;;1.00;1.00;;;;;21.52;41.23;101288.47;5032570;28;45504;-68
2022/12/24 10:30:24;;;;;;;;;2.00;1.00;;;;;21.52;41.09;101286.66;5032576;28;46250;-68
2022/12/24 10:32:53;;;;;;;;;3.00;1.00;;;;;21.52;40.77;101285.81;5032829;28;45242;-68
2022/12/24 10:35:23;;;;;;;;;0.00;0.00;;;;;21.51;41.36;101279.72;5032934;28;45469;-68
2022/12/24 10:37:51;;;;;;;;;1.00;1.00;;;;;21.52;41.09;101278.69;5032681;28;45534;-69
2022/12/24 10:40:47;;;;;;;;;0.00;0.00;;;;;21.53;41.38;101276.88;5032390;28;47060;-68
2022/12/24 10:43:19;;;;;;;;;0.67;0.67;;;;;21.52;41.41;101289.28;5032249;28;45318;-68
2022/12/24 10:45:52;;;;;;;;;1.33;1.00;;;;;21.50;41.58;101282.50;5032623;28;45360;-68
2022/12/24 10:48:27;;;;;;;;;1.67;0.00;;;;;21.52;41.49;101291.94;5032570;28;45460;-68
2022/12/24 10:51:06;;;;;;;;;0.00;0.00;;;;;21.51;41.37;101287.66;5032296;28;46398;-68
2022/12/24 10:53:47;;;;;;;;;1.00;0.33;;;;;21.52;41.26;101286.66;5032347;28;45424;-68
2022/12/24 10:56:15;;;;;;;;;1.00;0.00;;;;;21.51;41.31;101292.94;5013068;28;45314;-68
2022/12/24 10:58:50;;;;;;;;;1.00;1.00;;;;;21.51;41.49;101292.94;5012552;28;45236;-68
2022/12/24 11:01:15;;;;;;;;;1.67;1.00;;;;;21.51;41.47;101292.13;5012210;28;45565;-68
2022/12/24 11:03:41;;;;;;;;;2.00;1.00;;;;;21.51;40.94;101286.81;5026886;27;45345;-68
2022/12/24 11:06:13;;;;;;;;;2.00;1.00;;;;;21.46;40.97;101282.03;5032453;28;45439;-69
2022/12/24 11:08:42;;;;;;;;;0.33;0.00;;;;;21.51;41.55;101290.31;5032431;28;45539;-68
2022/12/24 11:11:11;;;;;;;;;4.00;1.67;;;;;21.50;41.26;101278.03;5031790;28;46200;-68
2022/12/24 11:13:38;;;;;;;;;1.00;1.00;;;;;;;;5032026;28;45332;-68
2022/12/24 11:16:10;;;;;;;;;0.00;0.00;;;;;21.52;41.02;101273.41;5032273;28;45350;-68
2022/12/24 11:18:43;;;;;;;;;1.00;1.00;;;;;21.51;41.06;101277.06;5032084;28;45562;-68
2022/12/24 11:21:08;;;;;;;;;0.00;0.00;;;;;21.51;41.34;101270.94;5031962;28;46010;-68
2022/12/24 11:23:34;;;;;;;;;2.00;0.00;;;;;21.46;41.58;101254.72;5031818;28;45360;-68
2022/12/24 11:25:59;;;;;;;;;0.67;0.00;;;;;21.51;41.49;101261.19;5031907;28;45422;-68
2022/12/24 11:28:32;;;;;;;;;3.33;1.00;;;;;21.52;41.34;101267.28;5031867;28;45359;-68
2022/12/24 11:31:17;;;;;;;;;0.67;0.00;;;;;21.50;41.27;101256.88;5031826;28;47445;-68
2022/12/24 11:33:48;;;;;;;;;0.00;0.00;;;;;21.50;41.58;101254.22;5034391;28;45505;-68
2022/12/24 11:36:21;;;;;;;;;0.00;0.00;;;;;;;;5035062;28;45405;-68
2022/12/24 11:38:57;;;;;;;;;1.00;1.00;;;;;21.50;41.78;101251.56;5035000;28;45357;-68
2022/12/24 11:41:24;;;;;;;;;1.00;1.00;;;;;21.50;41.11;101248.94;5034430;28;47371;-68
2022/12/24 11:43:58;;;;;;;;;0.00;0.00;;;;;21.50;41.27;101243.63;5034878;28;45332;-68